Airfield :
LOGIN :

Register | Disclaimer

   EN    FR    IT 

 










Legend :    VFR   Marginal VFR   IFR   Intensive IFR   Very Intensive IFR
Visi :
Ceiling :
>= 8 km
>= 3000ft
5 to 8 km
1000 to 3000 ft
1500m to 5 km
500 to 1000 ft
800 to 1500m
200 to 500 ft
< 800m
< 200 ft
Symbols :   Thunderstorms  Fog  Heavy snow  Heavy precipitations  Wind > 20 kt
SIGMETs :     Misc.  Thunderstorms  Icing  Turbulence  Mountain Waves  Volcanic Ashes







- Airport Elevation : 1363 ft


ETIC - Grafenwohr Army Air Field

CURRENT METAR :
  • 212233Z AUTO 00000KT 9999 SCT085 SCT230 07/07 A3015 RMK AO2 SLP216 $

EXPIRED METARs :
  • 212218Z AUTO 00000KT 1800 R32/0900 BR CLR 07/07 A3015 RMK AO2 VIS 0800V1800 SLP218 $
  • 212208Z AUTO 00000KT 1400 R32/0500V0900 BR CLR 07/07 A3015 RMK AO2 VIS 1400V9999 SLP218 $
  • 212156Z AUTO 00000KT 9999 CLR 08/08 A3015 RMK AO2 SLP216 T00780077 $
  • 212056Z AUTO 00000KT 9999 SCT055 09/09 A3014 RMK AO2 SLP214 T00880085 50002 $
  • 211956Z AUTO 00000KT 9999 OVC060 10/10 A3014 RMK AO2 SLP214 T01040098 $

TAF TAF ETIC
Valid from the 21 at 22:00 until the 23 at 04:00 UTC


212208Z 2122/2304 VRB06KT 9999 SCT050 BKN060 QNH3016INS
TEMPO 2122/2124 2000 BR
BECMG 2200/2201 VRB06KT 5000 BR SCT040 BKN050 QNH3017INS
TEMPO 2204/2208 2400 BR
BECMG 2207/2208 VRB06KT 9999 NSW SCT035 BKN100 QNH3018INS
BECMG 2221/2222 VRB06KT 8000 BR FEW050 QNH3022INS TX17/2214Z TN05/2204Z
No reported NOTAMs for that airfield.



MET'MAP, your aeronautical weather chart ! - Copyright ORBIFLY December 2007 - Disclaimer

ORBIFLY MET'MAP TEAM :

Programming & Development : Alexandra Zaïnal
Concept & Development : Baudouin d'Aumeries
Co-Development & Prog : Marc-Olivier Méhu
Technical & hardware support : Manuel Goepfert

Contact : metmap@orbifly.com




SOURCES & CREDITS :

   NOAA